Buoy 55944

sailwx.info

Track history (hours):
 
Tides and Currents Weather Stations Pressure Air Temp Water Temp Dewpoint Dewpoint Depression Visibility Wind Speed Wind Dir Waves Ship Positions

Drifting buoy 55944

Last reported at 2018-Jan-21 17:00 UTC. Time now 2018-Jan-21 18:47 UTC.
Position S 36°19' E 160°39'.

Water temperature 22.8 ° C

Date/timePositionNaut miles runAvg speedWind from/ knotsBaromVisibWave heightAir tempDewpointWater temp
2018-Jan-21 17:00S 36°19' E 160°39'2 2.3 22.8
2018-Jan-21 16:00S 36°17' E 160°37'0 0.0 22.9
2018-Jan-21 15:00S 36°17' E 160°37'7 1.4 22.9
2018-Jan-21 10:00S 36°13' E 160°30'2 2.3 22.9
2018-Jan-21 09:00S 36°11' E 160°28'0 0.0 22.9
2018-Jan-21 08:00S 36°11' E 160°28'1 0.3 23.0
2018-Jan-21 06:00S 36°12' E 160°28'1 1.3 23.1
2018-Jan-21 05:00S 36°11' E 160°27'1 0.6 23.1
2018-Jan-21 04:00S 36°11' E 160°27'7 1.4 23.1
2018-Jan-20 23:00S 36°07' E 160°20'1 0.3 22.8
2018-Jan-20 21:00S 36°07' E 160°20'1 0.8 22.7
2018-Jan-20 20:00S 36°06' E 160°20'3 0.8 22.7
2018-Jan-20 16:00S 36°03' E 160°19'1 0.6 22.7
2018-Jan-20 15:00S 36°02' E 160°19'6 1.6 22.7
2018-Jan-20 11:00S 35°57' E 160°23'0 0.0 22.8
2018-Jan-20 10:00S 35°57' E 160°23'1 0.8 22.8
2018-Jan-20 09:00S 35°56' E 160°24'1 0.8 22.8
2018-Jan-20 08:00S 35°56' E 160°25'0 0.5 22.8
2018-Jan-20 07:00S 35°56' E 160°25'1 0.8 22.9
2018-Jan-20 06:00S 35°55' E 160°26'0 0.0 22.9
2018-Jan-20 05:00S 35°55' E 160°26'5 0.7 22.9
2018-Jan-19 22:00S 35°50' E 160°28'1 1.3 22.6
2018-Jan-19 21:00S 35°49' E 160°29'1 0.8 22.6
2018-Jan-19 20:00S 35°49' E 160°29'1 1.3 22.6
2018-Jan-19 19:00S 35°47' E 160°30'4 3.9 22.6
2018-Jan-19 18:00S 35°44' E 160°33'0 0.0 22.6
2018-Jan-19 17:00S 35°44' E 160°33'5 5.0 22.6
2018-Jan-19 16:00S 35°41' E 160°37'0 0.0 22.6
2018-Jan-19 15:00S 35°41' E 160°37'0 0.0 22.6
2018-Jan-19 12:00S 35°41' E 160°37'1 0.8 22.6
2018-Jan-19 11:00S 35°40' E 160°38'3 2.8 22.6
2018-Jan-19 10:00S 35°38' E 160°40'0 0.0 22.6
2018-Jan-19 09:00S 35°38' E 160°40'2 1.9 22.6
2018-Jan-19 08:00S 35°37' E 160°41'2 1.9 22.6
2018-Jan-19 07:00S 35°35' E 160°43'0 0.0 22.7
2018-Jan-19 06:00S 35°35' E 160°43'6 5.6 22.7
2018-Jan-19 05:00S 35°31' E 160°47'0 0.0 22.7
2018-Jan-19 04:00S 35°31' E 160°47'0 0.0 22.6
2018-Jan-18 23:00S 35°31' E 160°47'1 1.2 22.5
2018-Jan-18 22:00S 35°29' E 160°47'3 1.0 22.5
2018-Jan-18 19:00S 35°27' E 160°49'1 0.6 22.5
2018-Jan-18 18:00S 35°26' E 160°49'3 2.8 22.5
2018-Jan-18 17:00S 35°24' E 160°51'0 0.0 22.5
2018-Jan-18 16:00S 35°24' E 160°51'5 1.2 22.5
2018-Jan-18 12:00S 35°20' E 160°55'1 1.5 22.5
2018-Jan-18 11:00S 35°20' E 160°57'1 0.8 22.5
2018-Jan-18 10:00S 35°20' E 160°58'0 0.0 22.5
2018-Jan-18 09:00S 35°20' E 160°58'1 1.0 22.6
2018-Jan-18 08:00S 35°20' E 160°59'2 1.5 22.6
2018-Jan-18 07:00S 35°21' E 161°00'0 0.5 22.6
2018-Jan-18 06:00S 35°21' E 160°59'0 0.0 22.6
2018-Jan-18 05:00S 35°21' E 160°59'1 0.2 22.6
2018-Jan-17 23:00S 35°20' E 160°58'1 0.6 22.6
2018-Jan-17 21:00S 35°19' E 160°58'0 0.2 22.6
2018-Jan-17 19:00S 35°19' E 160°59'3 0.9 22.6
2018-Jan-17 16:00S 35°17' E 161°01'0 0.0 22.7
2018-Jan-17 15:00S 35°17' E 161°01'0 0.0 22.7
2018-Jan-17 14:00S 35°17' E 161°01'5 2.3 22.7
2018-Jan-17 12:00S 35°18' E 161°06'0 0.0 22.8
2018-Jan-17 11:00S 35°18' E 161°06'2 0.9 22.8
2018-Jan-17 09:00S 35°20' E 161°07'1 1.3 22.8
2018-Jan-17 08:00S 35°21' E 161°07'4 3.6 22.9
2018-Jan-17 07:00S 35°25' E 161°08'0 0.0 22.9
2018-Jan-17 06:00S 35°25' E 161°08'7 7.3 22.9
2018-Jan-17 05:00S 35°28' E 161°00'0 0.0 22.9
2018-Jan-17 04:00S 35°28' E 161°00'0 0.1 22.9
2018-Jan-16 23:00S 35°28' E 160°59'0 0.5 23.0
2018-Jan-16 22:00S 35°28' E 161°00'1 0.8 23.0
2018-Jan-16 21:00S 35°28' E 160°59'1 0.6 23.0
2018-Jan-16 20:00S 35°27' E 160°59'7 0.6 23.0
2018-Jan-16 07:00S 35°34' E 161°01'1 1.3 23.3
2018-Jan-16 06:00S 35°35' E 161°01'1 1.1 23.3
2018-Jan-16 05:00S 35°36' E 160°59'5 5.4 23.4
2018-Jan-16 04:00S 35°36' E 160°53'0 0.0 23.4
2018-Jan-15 23:00S 35°36' E 160°53'1 1.1 23.4
2018-Jan-15 22:00S 35°35' E 160°52'1 0.3 23.3
2018-Jan-15 20:00S 35°35' E 160°52'1 0.3 23.3
2018-Jan-15 17:00S 35°35' E 160°50'0 0.2 23.3
2018-Jan-15 15:00S 35°35' E 160°51'3 0.7 23.3
2018-Jan-15 11:00S 35°37' E 160°49'1 1.1 23.4
2018-Jan-15 10:00S 35°38' E 160°48'3 1.3 23.4
2018-Jan-15 08:00S 35°38' E 160°45'2 1.6 23.4
2018-Jan-15 07:00S 35°38' E 160°43'0 0.5 23.4
2018-Jan-15 06:00S 35°38' E 160°43'0 0.0 23.4
2018-Jan-15 05:00S 35°38' E 160°43'5 4.5 23.4
2018-Jan-15 04:00S 35°35' E 160°38'0 0.0 23.4
2018-Jan-15 03:00S 35°35' E 160°38'1 0.2 23.4
2018-Jan-14 22:00S 35°35' E 160°39'1 1.2 23.4
2018-Jan-14 21:00S 35°37' E 160°39'1 0.8 23.4
2018-Jan-14 20:00S 35°36' E 160°40'0 0.0 23.4
2018-Jan-14 19:00S 35°36' E 160°40'2 0.9 23.4
2018-Jan-14 17:00S 35°38' E 160°39'1 1.3 23.4
2018-Jan-14 16:00S 35°39' E 160°38'0 0.0 23.4
2018-Jan-14 15:00S 35°39' E 160°38'4 1.4 23.4
2018-Jan-14 12:00S 35°41' E 160°34'0 0.5 23.4
2018-Jan-14 11:00S 35°41' E 160°34'2 1.9 23.4
2018-Jan-14 10:00S 35°41' E 160°31'2 0.8 23.4
2018-Jan-14 08:00S 35°41' E 160°29'3 1.7 23.5
2018-Jan-14 06:00S 35°39' E 160°26'2 1.9 23.5
2018-Jan-14 05:00S 35°37' E 160°26'0 0.5 23.5
2018-Jan-14 04:00S 35°37' E 160°26'2 0.4 23.5
2018-Jan-13 23:00S 35°35' E 160°27'12 0.3 23.4
2018-Jan-12 12:00S 35°26' E 160°19'0 0.0 23.8
2018-Jan-12 11:00S 35°26' E 160°19'1 0.6 23.8
2018-Jan-12 10:00S 35°25' E 160°19'0 0.0 23.9
2018-Jan-12 09:00S 35°25' E 160°19'1 1.3 24.0
2018-Jan-12 08:00S 35°24' E 160°19'2 1.6 24.1
2018-Jan-12 07:00S 35°23' E 160°21'0 0.0 24.3
2018-Jan-12 06:00S 35°23' E 160°21'1 0.5 24.3
2018-Jan-12 04:00S 35°23' E 160°22'1 0.1 24.2
2018-Jan-11 22:00S 35°23' E 160°22'1 0.6 23.4
2018-Jan-11 21:00S 35°22' E 160°22'1 0.8 23.4
2018-Jan-11 20:00S 35°22' E 160°23'1 0.6 23.4
2018-Jan-11 19:00S 35°21' E 160°23'0 0.0 23.4
2018-Jan-11 18:00S 35°21' E 160°23'1 0.6 23.4
2018-Jan-11 17:00S 35°20' E 160°23'   23.4
Track history (hours):
 
Tides and Currents Weather Stations Pressure Air Temp Water Temp Dewpoint Dewpoint Depression Visibility Wind Speed Wind Dir Waves Ship Positions

Drifting buoy 55944

Last reported at 2018-Jan-21 17:00 UTC. Time now 2018-Jan-21 18:47 UTC.
Position S 36°19' E 160°39'.

Water temperature 22.8 ° C

Date/timePositionNaut miles runAvg speedWind from/ knotsBaromVisibWave heightAir tempDewpointWater temp
2018-Jan-21 17:00S 36°19' E 160°39'2 2.3 22.8
2018-Jan-21 16:00S 36°17' E 160°37'0 0.0 22.9
2018-Jan-21 15:00S 36°17' E 160°37'7 1.4 22.9
2018-Jan-21 10:00S 36°13' E 160°30'2 2.3 22.9
2018-Jan-21 09:00S 36°11' E 160°28'0 0.0 22.9
2018-Jan-21 08:00S 36°11' E 160°28'1 0.3 23.0
2018-Jan-21 06:00S 36°12' E 160°28'1 1.3 23.1
2018-Jan-21 05:00S 36°11' E 160°27'1 0.6 23.1
2018-Jan-21 04:00S 36°11' E 160°27'7 1.4 23.1
2018-Jan-20 23:00S 36°07' E 160°20'1 0.3 22.8
2018-Jan-20 21:00S 36°07' E 160°20'1 0.8 22.7
2018-Jan-20 20:00S 36°06' E 160°20'3 0.8 22.7
2018-Jan-20 16:00S 36°03' E 160°19'1 0.6 22.7
2018-Jan-20 15:00S 36°02' E 160°19'6 1.6 22.7
2018-Jan-20 11:00S 35°57' E 160°23'0 0.0 22.8
2018-Jan-20 10:00S 35°57' E 160°23'1 0.8 22.8
2018-Jan-20 09:00S 35°56' E 160°24'1 0.8 22.8
2018-Jan-20 08:00S 35°56' E 160°25'0 0.5 22.8
2018-Jan-20 07:00S 35°56' E 160°25'1 0.8 22.9
2018-Jan-20 06:00S 35°55' E 160°26'0 0.0 22.9
2018-Jan-20 05:00S 35°55' E 160°26'5 0.7 22.9
2018-Jan-19 22:00S 35°50' E 160°28'1 1.3 22.6
2018-Jan-19 21:00S 35°49' E 160°29'1 0.8 22.6
2018-Jan-19 20:00S 35°49' E 160°29'1 1.3 22.6
2018-Jan-19 19:00S 35°47' E 160°30'4 3.9 22.6
2018-Jan-19 18:00S 35°44' E 160°33'0 0.0 22.6
2018-Jan-19 17:00S 35°44' E 160°33'5 5.0 22.6
2018-Jan-19 16:00S 35°41' E 160°37'0 0.0 22.6
2018-Jan-19 15:00S 35°41' E 160°37'0 0.0 22.6
2018-Jan-19 12:00S 35°41' E 160°37'1 0.8 22.6
2018-Jan-19 11:00S 35°40' E 160°38'3 2.8 22.6
2018-Jan-19 10:00S 35°38' E 160°40'0 0.0 22.6
2018-Jan-19 09:00S 35°38' E 160°40'2 1.9 22.6
2018-Jan-19 08:00S 35°37' E 160°41'2 1.9 22.6
2018-Jan-19 07:00S 35°35' E 160°43'0 0.0 22.7
2018-Jan-19 06:00S 35°35' E 160°43'6 5.6 22.7
2018-Jan-19 05:00S 35°31' E 160°47'0 0.0 22.7
2018-Jan-19 04:00S 35°31' E 160°47'0 0.0 22.6
2018-Jan-18 23:00S 35°31' E 160°47'1 1.2 22.5
2018-Jan-18 22:00S 35°29' E 160°47'3 1.0 22.5
2018-Jan-18 19:00S 35°27' E 160°49'1 0.6 22.5
2018-Jan-18 18:00S 35°26' E 160°49'3 2.8 22.5
2018-Jan-18 17:00S 35°24' E 160°51'0 0.0 22.5
2018-Jan-18 16:00S 35°24' E 160°51'5 1.2 22.5
2018-Jan-18 12:00S 35°20' E 160°55'1 1.5 22.5
2018-Jan-18 11:00S 35°20' E 160°57'1 0.8 22.5
2018-Jan-18 10:00S 35°20' E 160°58'0 0.0 22.5
2018-Jan-18 09:00S 35°20' E 160°58'1 1.0 22.6
2018-Jan-18 08:00S 35°20' E 160°59'2 1.5 22.6
2018-Jan-18 07:00S 35°21' E 161°00'0 0.5 22.6
2018-Jan-18 06:00S 35°21' E 160°59'0 0.0 22.6
2018-Jan-18 05:00S 35°21' E 160°59'1 0.2 22.6
2018-Jan-17 23:00S 35°20' E 160°58'1 0.6 22.6
2018-Jan-17 21:00S 35°19' E 160°58'0 0.2 22.6
2018-Jan-17 19:00S 35°19' E 160°59'3 0.9 22.6
2018-Jan-17 16:00S 35°17' E 161°01'0 0.0 22.7
2018-Jan-17 15:00S 35°17' E 161°01'0 0.0 22.7
2018-Jan-17 14:00S 35°17' E 161°01'5 2.3 22.7
2018-Jan-17 12:00S 35°18' E 161°06'0 0.0 22.8
2018-Jan-17 11:00S 35°18' E 161°06'2 0.9 22.8
2018-Jan-17 09:00S 35°20' E 161°07'1 1.3 22.8
2018-Jan-17 08:00S 35°21' E 161°07'4 3.6 22.9
2018-Jan-17 07:00S 35°25' E 161°08'0 0.0 22.9
2018-Jan-17 06:00S 35°25' E 161°08'7 7.3 22.9
2018-Jan-17 05:00S 35°28' E 161°00'0 0.0 22.9
2018-Jan-17 04:00S 35°28' E 161°00'0 0.1 22.9
2018-Jan-16 23:00S 35°28' E 160°59'0 0.5 23.0
2018-Jan-16 22:00S 35°28' E 161°00'1 0.8 23.0
2018-Jan-16 21:00S 35°28' E 160°59'1 0.6 23.0
2018-Jan-16 20:00S 35°27' E 160°59'7 0.6 23.0
2018-Jan-16 07:00S 35°34' E 161°01'1 1.3 23.3
2018-Jan-16 06:00S 35°35' E 161°01'1 1.1 23.3
2018-Jan-16 05:00S 35°36' E 160°59'5 5.4 23.4
2018-Jan-16 04:00S 35°36' E 160°53'0 0.0 23.4
2018-Jan-15 23:00S 35°36' E 160°53'1 1.1 23.4
2018-Jan-15 22:00S 35°35' E 160°52'1 0.3 23.3
2018-Jan-15 20:00S 35°35' E 160°52'1 0.3 23.3
2018-Jan-15 17:00S 35°35' E 160°50'0 0.2 23.3
2018-Jan-15 15:00S 35°35' E 160°51'3 0.7 23.3
2018-Jan-15 11:00S 35°37' E 160°49'1 1.1 23.4
2018-Jan-15 10:00S 35°38' E 160°48'3 1.3 23.4
2018-Jan-15 08:00S 35°38' E 160°45'2 1.6 23.4
2018-Jan-15 07:00S 35°38' E 160°43'0 0.5 23.4
2018-Jan-15 06:00S 35°38' E 160°43'0 0.0 23.4
2018-Jan-15 05:00S 35°38' E 160°43'5 4.5 23.4
2018-Jan-15 04:00S 35°35' E 160°38'0 0.0 23.4
2018-Jan-15 03:00S 35°35' E 160°38'1 0.2 23.4
2018-Jan-14 22:00S 35°35' E 160°39'1 1.2 23.4
2018-Jan-14 21:00S 35°37' E 160°39'1 0.8 23.4
2018-Jan-14 20:00S 35°36' E 160°40'0 0.0 23.4
2018-Jan-14 19:00S 35°36' E 160°40'2 0.9 23.4
2018-Jan-14 17:00S 35°38' E 160°39'1 1.3 23.4
2018-Jan-14 16:00S 35°39' E 160°38'0 0.0 23.4
2018-Jan-14 15:00S 35°39' E 160°38'4 1.4 23.4
2018-Jan-14 12:00S 35°41' E 160°34'0 0.5 23.4
2018-Jan-14 11:00S 35°41' E 160°34'2 1.9 23.4
2018-Jan-14 10:00S 35°41' E 160°31'2 0.8 23.4
2018-Jan-14 08:00S 35°41' E 160°29'3 1.7 23.5
2018-Jan-14 06:00S 35°39' E 160°26'2 1.9 23.5
2018-Jan-14 05:00S 35°37' E 160°26'0 0.5 23.5
2018-Jan-14 04:00S 35°37' E 160°26'2 0.4 23.5
2018-Jan-13 23:00S 35°35' E 160°27'12 0.3 23.4
2018-Jan-12 12:00S 35°26' E 160°19'0 0.0 23.8
2018-Jan-12 11:00S 35°26' E 160°19'1 0.6 23.8
2018-Jan-12 10:00S 35°25' E 160°19'0 0.0 23.9
2018-Jan-12 09:00S 35°25' E 160°19'1 1.3 24.0
2018-Jan-12 08:00S 35°24' E 160°19'2 1.6 24.1
2018-Jan-12 07:00S 35°23' E 160°21'0 0.0 24.3
2018-Jan-12 06:00S 35°23' E 160°21'1 0.5 24.3
2018-Jan-12 04:00S 35°23' E 160°22'1 0.1 24.2
2018-Jan-11 22:00S 35°23' E 160°22'1 0.6 23.4
2018-Jan-11 21:00S 35°22' E 160°22'1 0.8 23.4
2018-Jan-11 20:00S 35°22' E 160°23'1 0.6 23.4
2018-Jan-11 19:00S 35°21' E 160°23'0 0.0 23.4
2018-Jan-11 18:00S 35°21' E 160°23'1 0.6 23.4
2018-Jan-11 17:00S 35°20' E 160°23'   23.4

Dump ship's entire track history